createdAt,value
2017-07-30T00:02:22.853Z,3.37
2017-07-30T00:04:50.591Z,4.10
2017-07-30T00:07:18.367Z,3.30
2017-07-30T00:09:46.071Z,3.93
2017-07-30T00:12:13.837Z,3.50
2017-07-30T00:14:41.652Z,3.77
2017-07-30T00:17:09.347Z,3.43
2017-07-30T00:19:37.129Z,3.00
2017-07-30T00:22:04.838Z,3.63
2017-07-30T00:24:32.552Z,3.57
2017-07-30T00:27:00.382Z,3.70
2017-07-30T00:29:28.074Z,3.60
2017-07-30T00:31:55.848Z,3.60
2017-07-30T00:34:23.649Z,3.63
2017-07-30T00:36:51.366Z,3.90
2017-07-30T00:39:20.007Z,3.87
2017-07-30T00:41:47.735Z,3.60
2017-07-30T00:44:15.516Z,3.87
2017-07-30T00:46:43.396Z,4.27
2017-07-30T00:49:11.160Z,4.10
2017-07-30T00:51:38.831Z,3.80
2017-07-30T00:54:06.553Z,3.60
2017-07-30T00:56:34.292Z,3.60
2017-07-30T00:59:02.080Z,3.67
2017-07-30T01:01:29.797Z,4.10
2017-07-30T01:03:57.487Z,3.83
2017-07-30T01:06:25.238Z,3.13
2017-07-30T01:08:54.193Z,4.03
2017-07-30T01:11:21.949Z,3.83
2017-07-30T01:13:49.714Z,4.43
2017-07-30T01:16:17.529Z,3.97
2017-07-30T01:18:45.229Z,4.10
2017-07-30T01:21:13.980Z,3.93
2017-07-30T01:23:41.813Z,4.30
2017-07-30T01:26:09.507Z,4.60
2017-07-30T01:28:38.992Z,3.50
2017-07-30T01:31:07.167Z,4.30
2017-07-30T01:33:34.873Z,4.70
2017-07-30T01:36:02.558Z,3.00
2017-07-30T01:38:30.356Z,4.50
2017-07-30T01:40:58.083Z,3.93
2017-07-30T01:43:25.812Z,4.27
2017-07-30T01:45:53.710Z,3.50
2017-07-30T01:48:21.430Z,4.50
2017-07-30T01:50:49.196Z,4.70
2017-07-30T01:53:16.995Z,5.00
2017-07-30T01:55:45.494Z,4.17
2017-07-30T01:58:13.219Z,4.40
2017-07-30T02:00:40.989Z,4.30
2017-07-30T02:03:08.754Z,4.90
2017-07-30T02:05:36.460Z,5.63
2017-07-30T02:08:04.480Z,5.73
2017-07-30T02:10:32.176Z,5.17
2017-07-30T02:12:59.881Z,4.80
2017-07-30T02:15:27.650Z,4.90
2017-07-30T02:17:55.359Z,3.90
2017-07-30T02:20:23.159Z,4.47
2017-07-30T02:22:50.892Z,4.73
2017-07-30T02:25:18.638Z,5.10
2017-07-30T02:27:46.375Z,5.70
2017-07-30T02:30:14.169Z,6.27
2017-07-30T02:32:41.886Z,6.33
2017-07-30T02:35:09.636Z,5.70
2017-07-30T02:37:37.390Z,5.40
2017-07-30T02:40:05.080Z,6.63
2017-07-30T02:42:32.820Z,5.43
2017-07-30T02:45:01.546Z,6.00
2017-07-30T02:47:29.259Z,5.67
2017-07-30T02:49:57.035Z,5.30
2017-07-30T02:52:24.751Z,5.27
2017-07-30T02:54:52.515Z,4.90
2017-07-30T02:57:20.251Z,5.77
2017-07-30T02:59:48.028Z,5.40
2017-07-30T03:02:15.728Z,4.20
2017-07-30T03:04:43.416Z,5.50
2017-07-30T03:07:11.176Z,5.30
2017-07-30T03:09:39.167Z,4.93
2017-07-30T03:12:06.881Z,4.83
2017-07-30T03:14:34.577Z,5.20
2017-07-30T03:17:02.362Z,6.07
2017-07-30T03:19:30.071Z,6.00
2017-07-30T03:21:57.860Z,5.60
2017-07-30T03:24:25.630Z,5.60
2017-07-30T03:26:53.345Z,4.27
2017-07-30T03:29:21.051Z,4.63
2017-07-30T03:31:48.824Z,4.60
2017-07-30T03:34:16.540Z,4.23
2017-07-30T03:36:44.272Z,4.97
2017-07-30T03:39:12.002Z,4.43
2017-07-30T03:41:39.763Z,4.20
2017-07-30T03:44:07.489Z,4.23
2017-07-30T03:46:35.288Z,5.93
2017-07-30T03:49:04.112Z,4.70
2017-07-30T03:51:31.834Z,4.47
2017-07-30T03:53:59.518Z,4.83
2017-07-30T03:56:27.269Z,4.30
2017-07-30T03:58:54.998Z,5.13
2017-07-30T04:01:22.882Z,5.10
2017-07-30T04:03:50.587Z,5.07
2017-07-30T04:06:18.286Z,5.03
2017-07-30T04:08:46.171Z,5.03
2017-07-30T04:11:13.957Z,4.50
2017-07-30T04:13:41.718Z,5.60
2017-07-30T04:16:09.410Z,5.00
2017-07-30T04:18:37.093Z,4.40
2017-07-30T04:21:04.830Z,4.53
2017-07-30T04:23:32.547Z,5.00
2017-07-30T04:26:00.252Z,5.10
2017-07-30T04:28:28.038Z,5.33
2017-07-30T04:30:55.779Z,4.87
2017-07-30T04:33:23.481Z,4.83
2017-07-30T04:35:51.193Z,5.80
2017-07-30T04:38:18.894Z,6.30
2017-07-30T04:40:46.665Z,5.80
2017-07-30T04:43:14.375Z,5.80
2017-07-30T04:45:42.253Z,4.60
2017-07-30T04:48:10.059Z,6.07
2017-07-30T04:50:37.813Z,7.20
2017-07-30T04:53:05.563Z,14.00
2017-07-30T04:55:33.327Z,12.63
2017-07-30T04:58:01.028Z,10.80
2017-07-30T05:00:28.809Z,8.27
2017-07-30T05:02:56.688Z,9.63
2017-07-30T05:05:24.373Z,9.97
2017-07-30T05:07:52.220Z,6.13
2017-07-30T05:10:20.080Z,5.93
2017-07-30T05:12:47.769Z,5.80
2017-07-30T05:15:15.444Z,8.43
2017-07-30T05:17:43.195Z,5.80
2017-07-30T05:20:10.894Z,5.60
2017-07-30T05:22:38.659Z,5.70
2017-07-30T05:25:06.513Z,6.20
2017-07-30T05:27:34.246Z,5.80
2017-07-30T05:30:02.023Z,6.83
2017-07-30T05:32:29.803Z,6.50
2017-07-30T05:34:57.548Z,6.90
2017-07-30T05:37:25.333Z,6.57
2017-07-30T05:39:53.050Z,6.50
2017-07-30T05:42:20.820Z,5.83
2017-07-30T05:44:48.623Z,6.77
2017-07-30T05:47:16.434Z,5.67
2017-07-30T05:49:44.314Z,7.20
2017-07-30T05:52:12.072Z,5.77
2017-07-30T05:54:39.864Z,5.43
2017-07-30T05:57:07.617Z,7.07
2017-07-30T05:59:35.400Z,6.20
2017-07-30T06:02:03.258Z,6.90
2017-07-30T06:04:30.980Z,6.93
2017-07-30T06:06:58.760Z,6.33
2017-07-30T06:09:26.571Z,6.03
2017-07-30T06:11:54.284Z,6.40
2017-07-30T06:14:22.147Z,6.50
2017-07-30T06:16:49.899Z,5.53
2017-07-30T06:19:17.699Z,6.20
2017-07-30T06:21:45.463Z,5.23
2017-07-30T06:24:13.272Z,5.03
2017-07-30T06:26:41.040Z,5.13
2017-07-30T06:29:09.122Z,4.50
2017-07-30T06:31:36.982Z,5.30
2017-07-30T06:34:04.700Z,5.73
2017-07-30T06:36:32.532Z,5.23
2017-07-30T06:39:00.232Z,6.60
2017-07-30T06:41:28.050Z,5.37
2017-07-30T06:43:55.747Z,4.40
2017-07-30T06:46:23.895Z,4.20
2017-07-30T06:48:51.899Z,5.10
2017-07-30T06:51:19.637Z,5.77
2017-07-30T06:53:47.454Z,5.13
2017-07-30T06:56:15.199Z,5.50
2017-07-30T06:58:43.007Z,4.70
2017-07-30T07:01:11.829Z,6.30
2017-07-30T07:03:39.582Z,4.97
2017-07-30T07:06:07.762Z,4.80
2017-07-30T07:08:35.476Z,5.60
2017-07-30T07:11:03.205Z,4.10
2017-07-30T07:13:30.975Z,4.70
2017-07-30T07:15:58.728Z,4.10
2017-07-30T07:18:26.535Z,4.47
2017-07-30T07:20:54.304Z,4.47
2017-07-30T07:23:22.206Z,5.47
2017-07-30T07:25:50.245Z,4.50
2017-07-30T07:28:18.069Z,4.60
2017-07-30T07:30:45.960Z,4.87
2017-07-30T07:33:13.710Z,4.60
2017-07-30T07:35:41.506Z,5.00
2017-07-30T07:38:09.283Z,4.97
2017-07-30T07:40:37.091Z,5.37
2017-07-30T07:43:04.874Z,4.83
2017-07-30T07:45:32.568Z,5.57
2017-07-30T07:48:00.749Z,5.13
2017-07-30T07:50:28.503Z,4.97
2017-07-30T07:52:56.239Z,4.80
2017-07-30T07:55:24.151Z,6.00
2017-07-30T07:57:51.947Z,4.50
2017-07-30T08:00:19.747Z,5.13
2017-07-30T08:02:47.554Z,5.57
2017-07-30T08:05:15.594Z,5.07
2017-07-30T08:07:43.394Z,5.40
2017-07-30T08:10:11.117Z,4.77
2017-07-30T08:12:38.933Z,5.73
2017-07-30T08:15:06.741Z,5.20
2017-07-30T08:17:34.538Z,4.90
2017-07-30T08:20:02.412Z,5.13
2017-07-30T08:22:30.307Z,5.80
2017-07-30T08:24:58.056Z,5.10
2017-07-30T08:27:25.861Z,6.23
2017-07-30T08:29:53.730Z,4.80
2017-07-30T08:32:21.632Z,4.63
2017-07-30T08:34:49.345Z,5.83
2017-07-30T08:37:17.123Z,6.90
2017-07-30T08:39:44.909Z,5.60
2017-07-30T08:42:12.730Z,5.67
2017-07-30T08:44:40.557Z,5.63
2017-07-30T08:47:08.335Z,4.77
2017-07-30T08:49:36.063Z,5.23
2017-07-30T08:52:03.922Z,5.23
2017-07-30T08:54:31.671Z,5.60
2017-07-30T08:56:59.479Z,5.60
2017-07-30T08:59:27.199Z,5.53
2017-07-30T09:01:54.961Z,5.23
2017-07-30T09:04:22.718Z,4.97
2017-07-30T09:06:50.569Z,4.43
2017-07-30T09:09:18.307Z,5.67
2017-07-30T09:11:46.055Z,5.40
2017-07-30T09:14:13.804Z,5.17
2017-07-30T09:16:41.586Z,5.30
2017-07-30T09:19:09.414Z,4.17
2017-07-30T09:21:37.105Z,4.80
2017-07-30T09:24:04.891Z,4.53
2017-07-30T09:26:32.650Z,5.23
2017-07-30T09:29:00.419Z,4.60
2017-07-30T09:31:28.323Z,4.93
2017-07-30T09:33:56.059Z,5.87
2017-07-30T09:36:23.874Z,5.27
2017-07-30T09:38:51.631Z,4.90
2017-07-30T09:41:19.472Z,4.30
2017-07-30T09:43:47.251Z,5.67
2017-07-30T09:46:15.142Z,5.67
2017-07-30T09:48:42.887Z,6.20
2017-07-30T09:51:10.987Z,5.57
2017-07-30T09:53:38.739Z,4.93
2017-07-30T09:56:06.481Z,5.03
2017-07-30T09:58:34.282Z,5.27
2017-07-30T10:01:02.116Z,4.67
2017-07-30T10:03:29.986Z,4.23
2017-07-30T10:05:58.399Z,5.00
2017-07-30T10:08:26.109Z,4.30
2017-07-30T10:10:53.876Z,4.33
2017-07-30T10:13:21.630Z,4.67
2017-07-30T10:15:49.461Z,4.50
2017-07-30T10:18:17.226Z,4.13
2017-07-30T10:20:44.974Z,4.40
2017-07-30T10:23:12.939Z,4.50
2017-07-30T10:25:40.728Z,4.33
2017-07-30T10:28:08.507Z,4.87
2017-07-30T10:30:36.296Z,4.70
2017-07-30T10:33:04.188Z,4.47
2017-07-30T10:35:31.882Z,4.27
2017-07-30T10:37:59.584Z,4.17
2017-07-30T10:40:27.367Z,4.77
2017-07-30T10:42:55.154Z,4.70
2017-07-30T10:45:22.873Z,4.30
2017-07-30T10:47:50.573Z,5.70
2017-07-30T10:50:18.385Z,4.83
2017-07-30T10:52:46.110Z,4.37
2017-07-30T10:55:13.884Z,4.80
2017-07-30T10:57:41.811Z,5.57
2017-07-30T11:00:10.502Z,4.30
2017-07-30T11:02:38.247Z,4.57
2017-07-30T11:05:05.978Z,4.97
2017-07-30T11:07:33.775Z,4.67
2017-07-30T11:10:02.572Z,4.60
2017-07-30T11:12:30.295Z,5.33
2017-07-30T11:14:58.074Z,5.07
2017-07-30T11:17:25.854Z,4.90
2017-07-30T11:19:53.622Z,5.13
2017-07-30T11:22:21.332Z,4.40
2017-07-30T11:24:49.022Z,5.50
2017-07-30T11:27:16.836Z,3.90
2017-07-30T11:29:44.592Z,4.40
2017-07-30T11:32:13.273Z,4.63
2017-07-30T11:34:41.128Z,4.77
2017-07-30T11:37:08.906Z,4.30
2017-07-30T11:39:36.622Z,5.43
2017-07-30T11:42:04.344Z,5.03
2017-07-30T11:44:32.190Z,4.90
2017-07-30T11:46:59.884Z,5.20
2017-07-30T11:49:27.628Z,5.00
2017-07-30T11:51:55.428Z,4.70
2017-07-30T11:54:23.123Z,4.50
2017-07-30T11:56:50.889Z,4.73
2017-07-30T11:59:18.689Z,5.37
2017-07-30T12:01:46.798Z,4.70
2017-07-30T12:04:14.500Z,4.77
2017-07-30T12:06:42.198Z,5.37
2017-07-30T12:09:09.986Z,3.13
2017-07-30T12:11:37.686Z,2.93
2017-07-30T12:14:05.461Z,2.17
2017-07-30T12:16:33.182Z,2.47
2017-07-30T12:19:01.111Z,2.50
2017-07-30T12:21:28.852Z,2.27
2017-07-30T12:23:56.581Z,1.83
2017-07-30T12:26:24.350Z,1.83
2017-07-30T12:28:52.090Z,2.37
2017-07-30T12:31:19.793Z,1.77
2017-07-30T12:33:47.609Z,2.37
2017-07-30T12:36:15.340Z,2.20
2017-07-30T12:38:43.071Z,2.30
2017-07-30T12:41:11.581Z,1.93
2017-07-30T12:43:39.382Z,2.10
2017-07-30T12:46:07.143Z,2.47
2017-07-30T12:48:35.218Z,1.93
2017-07-30T12:51:03.277Z,2.30
2017-07-30T12:53:31.052Z,2.30
2017-07-30T12:55:58.878Z,2.07
2017-07-30T12:58:26.656Z,2.50
2017-07-30T13:00:54.458Z,1.97
2017-07-30T13:03:22.405Z,2.40
2017-07-30T13:05:50.134Z,2.37
2017-07-30T13:08:17.862Z,1.90
2017-07-30T13:10:45.727Z,2.73
2017-07-30T13:13:13.527Z,2.63
2017-07-30T13:15:42.560Z,2.00
2017-07-30T13:18:10.420Z,1.97
2017-07-30T13:20:39.120Z,2.00
2017-07-30T13:23:06.875Z,2.20
2017-07-30T13:25:34.590Z,2.70
2017-07-30T13:28:03.428Z,2.10
2017-07-30T13:30:31.245Z,2.37
2017-07-30T13:32:59.035Z,2.30
2017-07-30T13:35:26.792Z,2.50
2017-07-30T13:37:54.574Z,2.27
2017-07-30T13:40:22.363Z,2.27
2017-07-30T13:42:50.145Z,2.23
2017-07-30T13:45:17.911Z,2.93
2017-07-30T13:47:45.627Z,2.37
2017-07-30T13:50:13.429Z,1.83
2017-07-30T13:52:42.193Z,1.73
2017-07-30T13:55:10.347Z,2.63
2017-07-30T13:57:38.250Z,2.13
2017-07-30T14:00:06.090Z,2.80
2017-07-30T14:02:33.907Z,2.27
2017-07-30T14:05:01.737Z,2.30
2017-07-30T14:07:29.712Z,2.27
2017-07-30T14:09:57.442Z,2.50
2017-07-30T14:12:25.195Z,2.20
2017-07-30T14:14:53.013Z,2.47
2017-07-30T14:17:20.731Z,2.10
2017-07-30T14:19:48.557Z,2.30
2017-07-30T14:22:16.353Z,2.70
2017-07-30T14:24:44.092Z,3.30
2017-07-30T14:27:11.820Z,2.00
2017-07-30T14:29:39.604Z,2.40
2017-07-30T14:32:07.318Z,2.43
2017-07-30T14:34:35.074Z,2.80
2017-07-30T14:37:02.937Z,2.57
2017-07-30T14:39:30.664Z,2.10
2017-07-30T14:41:58.404Z,2.10
2017-07-30T14:44:26.228Z,2.00
2017-07-30T14:46:54.082Z,1.90
2017-07-30T14:49:21.806Z,2.40
2017-07-30T14:51:49.588Z,1.43
2017-07-30T14:54:17.408Z,1.93
2017-07-30T14:56:45.283Z,2.87
2017-07-30T14:59:13.164Z,2.37
2017-07-30T15:01:40.997Z,2.20
2017-07-30T15:04:08.796Z,2.10
2017-07-30T15:06:37.095Z,2.83
2017-07-30T15:09:05.168Z,3.20
2017-07-30T15:11:33.004Z,3.13
2017-07-30T15:14:01.287Z,2.50
2017-07-30T15:16:29.050Z,2.87
2017-07-30T15:18:56.865Z,2.73
2017-07-30T15:21:24.671Z,2.47
2017-07-30T15:23:52.520Z,3.37
2017-07-30T15:26:20.277Z,2.80
2017-07-30T15:28:48.086Z,2.60
2017-07-30T15:31:16.041Z,2.70
2017-07-30T15:33:43.909Z,2.10
2017-07-30T15:36:11.731Z,2.33
2017-07-30T15:38:39.551Z,2.40
2017-07-30T15:41:07.370Z,2.30
2017-07-30T15:43:35.110Z,2.00
2017-07-30T15:46:02.981Z,1.90
2017-07-30T15:48:31.833Z,2.17
2017-07-30T15:51:00.020Z,2.43
2017-07-30T15:53:28.107Z,2.80
2017-07-30T15:55:56.048Z,2.30
2017-07-30T15:58:23.847Z,2.20
2017-07-30T16:00:51.611Z,2.10
2017-07-30T16:03:19.405Z,2.53
2017-07-30T16:05:47.179Z,2.63
2017-07-30T16:08:14.933Z,2.00
2017-07-30T16:10:42.712Z,2.83
2017-07-30T16:13:10.503Z,2.70
2017-07-30T16:15:38.217Z,2.93
2017-07-30T16:18:06.031Z,2.87
2017-07-30T16:20:33.754Z,3.60
2017-07-30T16:23:01.603Z,3.00
2017-07-30T16:25:29.438Z,3.23
2017-07-30T16:27:57.167Z,3.53
2017-07-30T16:30:24.946Z,3.37
2017-07-30T16:32:52.709Z,3.90
2017-07-30T16:35:20.432Z,3.93
2017-07-30T16:37:48.214Z,3.30
2017-07-30T16:40:16.078Z,3.20
2017-07-30T16:42:43.850Z,3.07
2017-07-30T16:45:11.685Z,3.63
2017-07-30T16:47:39.593Z,3.10
2017-07-30T16:50:07.340Z,2.70
2017-07-30T16:52:35.152Z,2.87
2017-07-30T16:55:03.191Z,3.20
2017-07-30T16:57:31.627Z,2.70
2017-07-30T16:59:59.457Z,3.40
2017-07-30T17:02:27.232Z,2.80
2017-07-30T17:04:55.144Z,2.87
2017-07-30T17:07:22.948Z,2.83
2017-07-30T17:09:50.732Z,3.37
2017-07-30T17:12:18.595Z,3.77
2017-07-30T17:14:46.484Z,2.97
2017-07-30T17:17:14.329Z,3.57
2017-07-30T17:19:42.085Z,3.90
2017-07-30T17:22:09.841Z,3.77
2017-07-30T17:24:37.632Z,3.83
2017-07-30T17:27:05.414Z,3.10
2017-07-30T17:29:33.242Z,3.00
2017-07-30T17:32:00.967Z,4.27
2017-07-30T17:34:28.718Z,4.00
2017-07-30T17:36:56.488Z,3.27
2017-07-30T17:39:24.408Z,3.40
2017-07-30T17:41:52.320Z,3.43
2017-07-30T17:44:20.154Z,3.50
2017-07-30T17:46:47.896Z,3.40
2017-07-30T17:49:15.690Z,3.30
2017-07-30T17:51:43.506Z,3.10
2017-07-30T17:54:11.247Z,3.50
2017-07-30T17:56:39.730Z,2.60
2017-07-30T17:59:07.554Z,3.23
2017-07-30T18:01:35.382Z,3.30
2017-07-30T18:04:03.146Z,3.33
2017-07-30T18:06:30.965Z,3.07
2017-07-30T18:08:58.742Z,3.03
2017-07-30T18:11:26.504Z,2.80
2017-07-30T18:13:54.310Z,3.50
2017-07-30T18:16:22.175Z,4.30
2017-07-30T18:18:52.047Z,3.53
2017-07-30T18:21:19.953Z,3.10
2017-07-30T18:23:47.963Z,3.20
2017-07-30T18:26:19.146Z,3.50
2017-07-30T18:28:46.916Z,3.57
2017-07-30T18:31:14.879Z,3.57
2017-07-30T18:33:42.805Z,2.73
2017-07-30T18:36:11.432Z,3.20
2017-07-30T18:38:39.344Z,3.50
2017-07-30T18:41:08.021Z,3.90
2017-07-30T18:43:35.751Z,3.10
2017-07-30T18:46:03.568Z,3.63
2017-07-30T18:48:31.315Z,3.97
2017-07-30T18:50:59.091Z,3.47
2017-07-30T18:53:28.006Z,3.53
2017-07-30T18:55:55.967Z,3.03
2017-07-30T18:58:23.772Z,3.27
2017-07-30T19:00:51.741Z,3.30
2017-07-30T19:03:19.630Z,3.23
2017-07-30T19:05:47.374Z,3.37
2017-07-30T19:08:16.336Z,3.67
2017-07-30T19:10:44.262Z,3.40
2017-07-30T19:13:12.106Z,3.27
2017-07-30T19:15:39.912Z,3.60
2017-07-30T19:18:07.717Z,3.20
2017-07-30T19:20:35.584Z,4.77
2017-07-30T19:23:03.702Z,3.10
2017-07-30T19:25:31.987Z,3.30
2017-07-30T19:27:59.996Z,3.07
2017-07-30T19:30:27.991Z,4.07
2017-07-30T19:32:55.822Z,3.77
2017-07-30T19:35:23.630Z,3.73
2017-07-30T19:37:51.533Z,3.90
2017-07-30T19:40:19.565Z,3.40
2017-07-30T19:42:47.448Z,3.60
2017-07-30T19:45:15.337Z,3.70
2017-07-30T19:47:43.373Z,3.60
2017-07-30T19:50:11.368Z,3.97
2017-07-30T19:52:39.214Z,3.77
2017-07-30T20:10:27.975Z,4.30
2017-07-30T20:12:55.762Z,3.80
2017-07-30T20:15:24.470Z,4.00
2017-07-30T20:17:53.257Z,3.40
2017-07-30T20:20:21.170Z,2.93
2017-07-30T20:31:11.821Z,3.43
2017-07-30T20:33:40.214Z,3.77
2017-07-30T20:36:08.288Z,3.80
2017-07-30T20:38:36.348Z,3.57
2017-07-30T20:41:04.392Z,3.87
2017-07-30T20:43:32.189Z,3.57
2017-07-30T20:46:00.099Z,3.63
2017-07-30T20:48:28.667Z,3.70
2017-07-30T20:50:57.659Z,3.50
2017-07-30T20:53:26.354Z,3.60
2017-07-30T20:55:55.344Z,4.17
2017-07-30T21:01:11.893Z,4.30
2017-07-30T21:03:39.911Z,4.53
2017-07-30T21:06:07.878Z,3.53
2017-07-30T21:08:35.746Z,3.30
2017-07-30T21:21:13.044Z,3.00
2017-07-30T21:23:40.847Z,4.60
2017-07-30T21:26:09.468Z,3.73
2017-07-30T21:28:37.280Z,4.13
2017-07-30T21:31:05.125Z,4.57
2017-07-30T21:33:32.876Z,3.80
2017-07-30T21:41:11.269Z,4.10
2017-07-30T21:43:39.017Z,3.90
2017-07-30T21:46:07.952Z,3.93
2017-07-30T22:01:11.296Z,3.60
2017-07-30T22:03:39.126Z,2.93
2017-07-30T22:06:06.935Z,3.50
2017-07-30T22:08:34.700Z,2.67
2017-07-30T22:11:02.399Z,4.00
2017-07-30T22:13:31.046Z,3.73
2017-07-30T22:15:59.720Z,3.00
2017-07-30T22:21:18.644Z,3.90
2017-07-30T22:23:46.436Z,4.07
2017-07-30T22:26:14.260Z,4.37
2017-07-30T22:28:42.032Z,3.40
2017-07-30T22:31:09.804Z,4.10
2017-07-30T22:33:37.539Z,3.53
2017-07-30T22:36:05.646Z,3.60
2017-07-30T22:38:33.755Z,3.70
2017-07-30T22:41:01.529Z,3.43
2017-07-30T22:43:29.298Z,4.20
2017-07-30T22:45:57.746Z,4.60
2017-07-30T22:48:26.441Z,4.90
2017-07-30T22:50:54.308Z,4.37
2017-07-30T22:53:22.097Z,5.00
2017-07-30T22:55:49.853Z,4.07
2017-07-30T22:58:17.615Z,4.37
2017-07-30T23:00:45.506Z,3.43
2017-07-30T23:03:13.301Z,3.87
2017-07-30T23:05:41.071Z,4.80
2017-07-30T23:08:08.783Z,4.50
2017-07-30T23:10:36.647Z,4.17
2017-07-30T23:13:04.905Z,3.80
2017-07-30T23:15:32.654Z,3.67
2017-07-30T23:18:00.616Z,3.17
2017-07-30T23:20:28.486Z,3.23
2017-07-30T23:22:56.577Z,3.20
2017-07-30T23:25:24.749Z,3.50
2017-07-30T23:27:52.459Z,3.30
2017-07-30T23:30:20.244Z,3.80
2017-07-30T23:32:47.956Z,3.43
2017-07-30T23:35:15.714Z,3.10
2017-07-30T23:37:43.522Z,3.67
2017-07-30T23:40:12.262Z,4.47
2017-07-30T23:42:40.030Z,3.73
2017-07-30T23:45:07.915Z,4.17
2017-07-30T23:47:35.662Z,3.60
2017-07-30T23:50:04.547Z,3.23
2017-07-30T23:52:32.539Z,4.27
2017-07-30T23:55:00.260Z,3.43
2017-07-30T23:57:28.005Z,4.13
2017-07-30T23:59:55.748Z,3.77
